METAR Data
IDs: Format: Raw Decoded Include TAF

Data at: 1327 UTC 07 Jul 2020

METAR for:KBWI (Baltimore-Washington, MD, US)
Text:KBWI 071301Z 10008KT 10SM FEW009 BKN013 OVC025 23/21 A3007 RMK AO2 T02330206
Temperature: 23.3°C ( 74°F)
Dewpoint: 20.6°C ( 69°F) [RH = 85%]
Pressure (altimeter):30.07 inches Hg (1018.4 mb)
Winds:from the E (100 degrees) at 9 MPH (8 knots; 4.1 m/s)
Visibility:10 or more sm (16+ km)
Ceiling:1300 feet AGL
Clouds: few clouds at 900 feet AGL, broken clouds at 1300 feet AGL, overcast cloud deck at 2500 feet AGL